createdAt,value
2023-04-16T00:00:23.312Z,63.5882
2023-04-16T00:01:24.722Z,63.6019
2023-04-16T00:02:27.821Z,63.4349
2023-04-16T00:03:27.774Z,63.4642
2023-04-16T00:04:29.150Z,63.5139
2023-04-16T00:05:30.438Z,63.4073
2023-04-16T00:06:32.678Z,63.5350
2023-04-16T00:07:33.377Z,63.6423
2023-04-16T00:08:34.883Z,63.8910
2023-04-16T00:09:36.217Z,63.8151
2023-04-16T00:10:37.738Z,63.8429
2023-04-16T00:11:39.103Z,63.7573
2023-04-16T00:12:40.734Z,63.8666
2023-04-16T00:13:42.181Z,63.7800
2023-04-16T00:14:43.578Z,63.5497
2023-04-16T00:15:44.858Z,63.3264
2023-04-16T00:16:47.348Z,63.4837
2023-04-16T00:17:47.933Z,63.5619
2023-04-16T00:18:49.365Z,63.6701
2023-04-16T00:19:50.642Z,63.7925
2023-04-16T00:20:52.665Z,63.5671
2023-04-16T00:21:53.530Z,63.4500
2023-04-16T00:22:55.219Z,63.3828
2023-04-16T00:23:56.453Z,63.5983
2023-04-16T00:24:58.705Z,63.5552
2023-04-16T00:25:59.203Z,63.4614
2023-04-16T00:27:00.731Z,63.4457
2023-04-16T00:28:02.177Z,63.7722
2023-04-16T00:29:03.656Z,63.9456
2023-04-16T00:30:04.980Z,63.8938
2023-04-16T00:31:06.537Z,63.5218
2023-04-16T00:32:07.917Z,63.6119
2023-04-16T00:33:09.392Z,63.6990
2023-04-16T00:34:11.149Z,63.5202
2023-04-16T00:35:12.354Z,63.7729
2023-04-16T00:36:16.574Z,63.6381
2023-04-16T00:37:16.088Z,63.7915
2023-04-16T00:38:16.601Z,63.7361
2023-04-16T00:39:18.052Z,63.8824
2023-04-16T00:40:19.432Z,63.9339
2023-04-16T00:41:20.876Z,64.0111
2023-04-16T00:42:22.321Z,63.8781
2023-04-16T00:43:23.782Z,63.8219
2023-04-16T00:44:25.332Z,63.9307
2023-04-16T00:45:26.691Z,63.8389
2023-04-16T00:46:28.209Z,63.7319
2023-04-16T00:47:29.551Z,63.9154
2023-04-16T00:48:31.059Z,63.7492
2023-04-16T00:49:32.497Z,63.8486
2023-04-16T00:50:33.936Z,63.7344
2023-04-16T00:51:35.319Z,63.6462
2023-04-16T00:52:36.797Z,63.8691
2023-04-16T00:53:38.266Z,63.8854
2023-04-16T00:54:39.735Z,63.6294
2023-04-16T00:55:41.129Z,63.5646
2023-04-16T00:56:42.580Z,63.4281
2023-04-16T00:57:44.015Z,63.5164
2023-04-16T00:58:45.518Z,63.6453
2023-04-16T00:59:46.947Z,64.0687
2023-04-16T01:00:48.316Z,64.1678
2023-04-16T01:01:49.781Z,64.1251
2023-04-16T01:02:51.364Z,64.0309
2023-04-16T01:03:52.895Z,63.8631
2023-04-16T01:04:54.136Z,63.9208
2023-04-16T01:05:55.535Z,63.9043
2023-04-16T01:06:57.053Z,64.0424
2023-04-16T01:07:58.518Z,64.0457
2023-04-16T01:09:00.042Z,64.1018
2023-04-16T01:10:01.509Z,63.6782
2023-04-16T01:11:02.876Z,63.9031
2023-04-16T01:12:04.300Z,63.6542
2023-04-16T01:13:05.722Z,64.0833
2023-04-16T01:14:09.204Z,63.9128
2023-04-16T01:15:08.670Z,63.8196
2023-04-16T01:16:10.100Z,63.8158
2023-04-16T01:17:11.516Z,63.6711
2023-04-16T01:18:12.952Z,63.6776
2023-04-16T01:19:14.481Z,63.8554
2023-04-16T01:20:17.751Z,63.7128
2023-04-16T01:21:17.272Z,63.6564
2023-04-16T01:22:18.697Z,63.9824
2023-04-16T01:23:20.184Z,64.0242
2023-04-16T01:24:21.713Z,64.0174
2023-04-16T01:25:23.153Z,63.8166
2023-04-16T01:26:25.139Z,63.8268
2023-04-16T01:27:25.957Z,63.9028
2023-04-16T01:28:28.137Z,63.8863
2023-04-16T01:29:28.879Z,63.9619
2023-04-16T01:30:30.339Z,64.0664
2023-04-16T01:31:31.747Z,64.2600
2023-04-16T01:32:33.227Z,64.2760
2023-04-16T01:33:34.632Z,64.1110
2023-04-16T01:34:36.742Z,64.0705
2023-04-16T01:35:37.608Z,63.9707
2023-04-16T01:36:38.948Z,64.1282
2023-04-16T01:37:40.397Z,64.1273
2023-04-16T01:38:41.795Z,64.0346
2023-04-16T01:39:43.286Z,64.0972
2023-04-16T01:40:44.706Z,64.0220
2023-04-16T01:41:46.225Z,64.0231
2023-04-16T01:42:47.560Z,64.0479
2023-04-16T01:43:49.061Z,63.8071
2023-04-16T01:44:50.480Z,63.7544
2023-04-16T01:45:51.943Z,63.7434
2023-04-16T01:46:53.379Z,63.8545
2023-04-16T01:47:54.845Z,63.8873
2023-04-16T01:48:56.237Z,63.9083
2023-04-16T01:49:57.752Z,64.0503
2023-04-16T01:50:59.147Z,64.1418
2023-04-16T01:52:00.619Z,64.1563
2023-04-16T01:53:01.992Z,63.8031
2023-04-16T01:54:03.435Z,63.7024
2023-04-16T01:55:04.962Z,64.0422
2023-04-16T01:56:06.401Z,63.7036
2023-04-16T01:57:07.786Z,64.0355
2023-04-16T01:58:09.232Z,63.8249
2023-04-16T01:59:11.821Z,63.8837
2023-04-16T02:00:12.164Z,63.9432
2023-04-16T02:01:13.772Z,64.5453
2023-04-16T02:02:15.113Z,64.5757
2023-04-16T02:03:16.695Z,64.4818
2023-04-16T02:04:17.906Z,64.5036
2023-04-16T02:05:19.396Z,64.3961
2023-04-16T02:06:20.828Z,64.2420
2023-04-16T02:07:22.388Z,64.2556
2023-04-16T02:08:23.731Z,64.2629
2023-04-16T02:09:25.224Z,64.0746
2023-04-16T02:10:26.684Z,63.7573
2023-04-16T02:11:28.102Z,64.0137
2023-04-16T02:12:29.499Z,63.9252
2023-04-16T02:13:30.949Z,63.9193
2023-04-16T02:14:32.530Z,64.0796
2023-04-16T02:15:33.866Z,64.4477
2023-04-16T02:16:35.378Z,64.5216
2023-04-16T02:17:36.735Z,64.4414
2023-04-16T02:18:38.201Z,64.4143
2023-04-16T02:19:39.580Z,64.3327
2023-04-16T02:20:41.097Z,64.1496
2023-04-16T02:21:42.486Z,64.4626
2023-04-16T02:22:43.970Z,64.4767
2023-04-16T02:23:45.348Z,64.4301
2023-04-16T02:24:46.908Z,64.2585
2023-04-16T02:25:48.312Z,64.3082
2023-04-16T02:26:49.797Z,63.9961
2023-04-16T02:27:51.178Z,64.2323
2023-04-16T02:28:52.577Z,64.5119
2023-04-16T02:29:54.017Z,64.5174
2023-04-16T02:30:55.497Z,64.4146
2023-04-16T02:31:57.002Z,64.5336
2023-04-16T02:32:58.460Z,64.4057
2023-04-16T02:33:59.788Z,64.5523
2023-04-16T02:35:01.288Z,64.5106
2023-04-16T02:36:02.689Z,64.2058
2023-04-16T02:37:04.156Z,64.0564
2023-04-16T02:38:05.560Z,64.4728
2023-04-16T02:39:07.170Z,64.2095
2023-04-16T02:40:08.488Z,64.0625
2023-04-16T02:41:09.905Z,64.3829
2023-04-16T02:42:11.413Z,64.3144
2023-04-16T02:43:12.746Z,64.3197
2023-04-16T02:44:14.309Z,64.4051
2023-04-16T02:45:15.708Z,64.3734
2023-04-16T02:46:17.233Z,64.5694
2023-04-16T02:47:18.633Z,64.5366
2023-04-16T02:48:20.018Z,64.6163
2023-04-16T02:49:24.148Z,64.6834
2023-04-16T02:50:22.906Z,64.6031
2023-04-16T02:51:24.712Z,64.7612
2023-04-16T02:52:25.930Z,64.6592
2023-04-16T02:53:27.248Z,64.2764
2023-04-16T02:54:28.768Z,63.8759
2023-04-16T02:55:30.140Z,63.8925
2023-04-16T02:56:32.253Z,63.6209
2023-04-16T02:57:33.066Z,63.2859
2023-04-16T02:58:34.510Z,63.2105
2023-04-16T02:59:35.858Z,62.7382
2023-04-16T03:00:37.355Z,62.6443
2023-04-16T03:01:38.845Z,62.6650
2023-04-16T03:02:40.346Z,62.0289
2023-04-16T03:03:41.676Z,61.8751
2023-04-16T03:04:43.127Z,61.8670
2023-04-16T03:05:44.492Z,61.3984
2023-04-16T03:06:46.029Z,61.4839
2023-04-16T03:07:48.231Z,61.2103
2023-04-16T03:08:48.960Z,61.3061
2023-04-16T03:09:51.088Z,60.8592
2023-04-16T03:10:51.780Z,60.5671
2023-04-16T03:11:53.238Z,60.3933
2023-04-16T03:12:54.656Z,60.3168
2023-04-16T03:13:56.098Z,60.4761
2023-04-16T03:14:57.478Z,60.7403
2023-04-16T03:15:59.016Z,60.4234
2023-04-16T03:17:00.602Z,60.0882
2023-04-16T03:18:02.810Z,60.1382
2023-04-16T03:19:03.257Z,60.5007
2023-04-16T03:20:04.736Z,60.3955
2023-04-16T03:21:06.154Z,60.5079
2023-04-16T03:22:08.315Z,60.4388
2023-04-16T03:23:09.182Z,60.0364
2023-04-16T03:24:10.572Z,59.9825
2023-04-16T03:25:11.914Z,59.9420
2023-04-16T03:26:13.439Z,60.0055
2023-04-16T03:27:14.835Z,59.9337
2023-04-16T03:28:16.320Z,59.7184
2023-04-16T03:29:17.758Z,59.4540
2023-04-16T03:30:19.173Z,59.3614
2023-04-16T03:31:20.708Z,59.6713
2023-04-16T03:32:22.077Z,59.4788
2023-04-16T03:33:23.795Z,59.5345
2023-04-16T03:34:25.063Z,59.7424
2023-04-16T03:35:26.378Z,59.7353
2023-04-16T03:36:27.912Z,59.9298
2023-04-16T03:37:29.232Z,59.9896
2023-04-16T03:38:30.779Z,59.8554
2023-04-16T03:39:32.184Z,59.5198
2023-04-16T03:40:33.599Z,59.3599
2023-04-16T03:41:35.007Z,59.7689
2023-04-16T03:42:36.468Z,59.5319
2023-04-16T03:43:37.966Z,59.4464
2023-04-16T03:44:40.270Z,59.6101
2023-04-16T03:45:41.309Z,59.4778
2023-04-16T03:46:42.250Z,59.2033
2023-04-16T03:47:43.810Z,59.1987
2023-04-16T03:48:45.668Z,59.2559
2023-04-16T03:49:48.274Z,59.5411
2023-04-16T03:50:48.047Z,59.6068
2023-04-16T03:51:49.435Z,59.3439
2023-04-16T03:52:51.732Z,59.3982
2023-04-16T03:53:52.327Z,59.4018
2023-04-16T03:54:54.693Z,59.3917
2023-04-16T03:55:55.323Z,59.5012
2023-04-16T03:56:56.620Z,59.6438
2023-04-16T03:58:00.713Z,59.6576
2023-04-16T03:58:59.510Z,59.2647
2023-04-16T04:00:01.359Z,59.0848
2023-04-16T04:01:02.406Z,59.0556
2023-04-16T04:02:04.804Z,59.3646
2023-04-16T04:03:05.370Z,59.8798
2023-04-16T04:04:06.890Z,59.8473
2023-04-16T04:05:08.186Z,59.6914
2023-04-16T04:06:09.620Z,59.4585
2023-04-16T04:07:11.068Z,59.9243
2023-04-16T04:08:12.519Z,59.7372
2023-04-16T04:09:13.914Z,59.4496
2023-04-16T04:10:15.409Z,59.5272
2023-04-16T04:11:16.897Z,59.7970
2023-04-16T04:12:18.244Z,59.5055
2023-04-16T04:13:19.669Z,59.3822
2023-04-16T04:14:21.146Z,59.8632
2023-04-16T04:15:22.713Z,59.6627
2023-04-16T04:16:24.087Z,59.6080
2023-04-16T04:17:25.472Z,59.9997
2023-04-16T04:18:26.928Z,59.5216
2023-04-16T04:19:31.264Z,59.1262
2023-04-16T04:20:29.871Z,59.2019
2023-04-16T04:21:31.743Z,59.0914
2023-04-16T04:22:33.321Z,59.2109
2023-04-16T04:23:34.150Z,59.4131
2023-04-16T04:24:35.582Z,59.6059
2023-04-16T04:25:37.703Z,59.3792
2023-04-16T04:26:38.499Z,58.9850
2023-04-16T04:27:39.856Z,58.9007
2023-04-16T04:28:41.335Z,58.9081
2023-04-16T04:29:42.793Z,59.2586
2023-04-16T04:30:44.218Z,59.1562
2023-04-16T04:31:45.692Z,59.4120
2023-04-16T04:32:47.324Z,59.3765
2023-04-16T04:33:48.459Z,59.4602
2023-04-16T04:34:50.296Z,59.1158
2023-04-16T04:35:51.379Z,58.6476
2023-04-16T04:36:52.948Z,58.4427
2023-04-16T04:37:54.279Z,58.3544
2023-04-16T04:38:55.760Z,58.3969
2023-04-16T04:39:57.133Z,58.4461
2023-04-16T04:40:58.651Z,58.4987
2023-04-16T04:42:00.055Z,58.4748
2023-04-16T04:43:01.531Z,58.4966
2023-04-16T04:44:03.006Z,58.4770
2023-04-16T04:45:04.778Z,58.6290
2023-04-16T04:46:05.861Z,58.6009
2023-04-16T04:47:07.257Z,58.5963
2023-04-16T04:48:08.719Z,58.5976
2023-04-16T04:49:10.443Z,58.6743
2023-04-16T04:50:11.621Z,58.7006
2023-04-16T04:51:13.028Z,58.6956
2023-04-16T04:52:14.408Z,58.5925
2023-04-16T04:53:15.867Z,58.6754
2023-04-16T04:54:17.383Z,58.5543
2023-04-16T04:55:18.841Z,58.0589
2023-04-16T04:56:20.261Z,57.3869
2023-04-16T04:57:21.707Z,56.7635
2023-04-16T04:58:23.077Z,56.2446
2023-04-16T04:59:24.570Z,55.7989
2023-04-16T05:00:26.776Z,55.3164
2023-04-16T05:01:27.469Z,54.8468
2023-04-16T05:02:28.896Z,54.4405
2023-04-16T05:03:30.217Z,54.5273
2023-04-16T05:04:31.612Z,54.2547
2023-04-16T05:05:33.127Z,53.5190
2023-04-16T05:06:36.266Z,53.0596
2023-04-16T05:07:35.996Z,52.9067
2023-04-16T05:08:37.410Z,52.6236
2023-04-16T05:09:38.854Z,52.3325
2023-04-16T05:10:40.333Z,52.1410
2023-04-16T05:11:42.861Z,51.5890
2023-04-16T05:12:43.356Z,51.8287
2023-04-16T05:13:44.695Z,51.5808
2023-04-16T05:14:46.105Z,51.6113
2023-04-16T05:15:47.546Z,51.3073
2023-04-16T05:16:49.929Z,51.2770
2023-04-16T05:17:50.766Z,50.8713
2023-04-16T05:18:51.816Z,50.8525
2023-04-16T05:19:53.292Z,50.5118
2023-04-16T05:20:54.768Z,50.2583
2023-04-16T05:21:56.243Z,50.2992
2023-04-16T05:22:57.705Z,50.2316
2023-04-16T05:23:59.108Z,50.0440
2023-04-16T05:25:00.476Z,50.4627
2023-04-16T05:26:01.980Z,50.3366
2023-04-16T05:27:03.535Z,50.1811
2023-04-16T05:28:04.833Z,50.0097
2023-04-16T05:29:06.201Z,50.3828
2023-04-16T05:30:07.709Z,51.0172
2023-04-16T05:31:09.234Z,50.6051
2023-04-16T05:32:10.587Z,50.1788
2023-04-16T05:33:12.042Z,50.0365
2023-04-16T05:34:13.361Z,49.8607
2023-04-16T05:35:17.231Z,50.4147
2023-04-16T05:36:16.289Z,50.6105
2023-04-16T05:37:18.258Z,50.4318
2023-04-16T05:38:19.171Z,50.0723
2023-04-16T05:39:20.594Z,49.8260
2023-04-16T05:40:22.020Z,50.1097
2023-04-16T05:41:23.510Z,50.3864
2023-04-16T05:42:24.885Z,50.5376
2023-04-16T05:43:26.290Z,50.1863
2023-04-16T05:44:28.238Z,49.8798
2023-04-16T05:45:29.166Z,49.3931
2023-04-16T05:46:30.830Z,49.8453
2023-04-16T05:47:32.117Z,50.2743
2023-04-16T05:48:33.522Z,50.1623
2023-04-16T05:49:34.971Z,49.8296
2023-04-16T05:50:36.355Z,49.7775
2023-04-16T05:51:37.923Z,49.7803
2023-04-16T05:52:39.204Z,50.1433
2023-04-16T05:53:40.694Z,50.3778
2023-04-16T05:54:42.084Z,50.0052
2023-04-16T05:55:43.447Z,49.7885
2023-04-16T05:56:44.941Z,49.6716
2023-04-16T05:57:46.386Z,49.7371
2023-04-16T05:58:47.829Z,50.1795
2023-04-16T05:59:51.280Z,49.9934
2023-04-16T06:00:50.671Z,49.5422
2023-04-16T06:01:52.202Z,49.4055
2023-04-16T06:02:53.751Z,49.2567
2023-04-16T06:03:55.200Z,49.8238
2023-04-16T06:04:56.479Z,50.1782
2023-04-16T06:05:58.069Z,50.0924
2023-04-16T06:06:59.299Z,49.6236
2023-04-16T06:08:00.810Z,49.5609
2023-04-16T06:09:02.237Z,49.7230
2023-04-16T06:10:03.666Z,50.3369
2023-04-16T06:11:05.106Z,50.3691
2023-04-16T06:12:06.546Z,49.7275
2023-04-16T06:13:07.967Z,49.5435
2023-04-16T06:14:09.405Z,49.7688
2023-04-16T06:15:10.877Z,49.8464
2023-04-16T06:16:12.218Z,50.2646
2023-04-16T06:17:13.732Z,50.1716
2023-04-16T06:18:15.142Z,49.7535
2023-04-16T06:19:16.610Z,49.5533
2023-04-16T06:20:18.013Z,49.7191
2023-04-16T06:21:19.474Z,50.0178
2023-04-16T06:22:20.857Z,50.0859
2023-04-16T06:23:23.370Z,49.6875
2023-04-16T06:24:23.766Z,49.8134
2023-04-16T06:25:25.221Z,49.6492
2023-04-16T06:26:26.641Z,49.9370
2023-04-16T06:27:28.104Z,50.1264
2023-04-16T06:28:29.549Z,49.9087
2023-04-16T06:29:40.455Z,49.6588
2023-04-16T06:30:32.399Z,49.7999
2023-04-16T06:31:33.827Z,49.9224
2023-04-16T06:32:35.195Z,50.2028
2023-04-16T06:33:36.647Z,50.0567
2023-04-16T06:34:38.105Z,49.4152
2023-04-16T06:35:39.559Z,49.6226
2023-04-16T06:36:40.929Z,49.4196
2023-04-16T06:37:42.381Z,50.0087
2023-04-16T06:38:43.813Z,49.9485
2023-04-16T06:39:45.264Z,49.5832
2023-04-16T06:40:46.707Z,49.5427
2023-04-16T06:41:48.134Z,49.4643
2023-04-16T06:42:49.554Z,49.7366
2023-04-16T06:43:50.987Z,50.0573
2023-04-16T06:44:52.450Z,49.7687
2023-04-16T06:45:53.908Z,49.4348
2023-04-16T06:46:55.308Z,49.4946
2023-04-16T06:47:56.810Z,49.6998
2023-04-16T06:48:58.169Z,49.9703
2023-04-16T06:49:59.677Z,49.8143
2023-04-16T06:51:01.098Z,49.4440
2023-04-16T06:52:04.569Z,49.4318
2023-04-16T06:53:03.925Z,49.5988
2023-04-16T06:54:05.391Z,49.7874
2023-04-16T06:55:06.772Z,49.9790
2023-04-16T06:56:08.301Z,49.5202
2023-04-16T06:57:09.692Z,49.8293
2023-04-16T06:58:11.096Z,49.6182
2023-04-16T06:59:12.496Z,50.0588
2023-04-16T07:00:14.023Z,50.1109
2023-04-16T07:01:15.490Z,49.5181
2023-04-16T07:02:17.058Z,49.6623
2023-04-16T07:03:18.365Z,49.8060
2023-04-16T07:04:19.789Z,50.1016
2023-04-16T07:05:21.178Z,50.4064
2023-04-16T07:06:22.643Z,49.9704
2023-04-16T07:07:24.028Z,49.6601
2023-04-16T07:08:25.509Z,49.7291
2023-04-16T07:09:26.943Z,50.0219
2023-04-16T07:10:28.409Z,50.4830
2023-04-16T07:11:29.798Z,50.3009
2023-04-16T07:12:31.227Z,49.7332
2023-04-16T07:13:32.691Z,50.0099
2023-04-16T07:14:34.145Z,49.8934
2023-04-16T07:15:35.816Z,50.3541
2023-04-16T07:16:37.091Z,50.5380
2023-04-16T07:17:38.464Z,49.9574
2023-04-16T07:18:39.897Z,50.0417
2023-04-16T07:19:42.274Z,49.7549
2023-04-16T07:20:42.858Z,50.1142
2023-04-16T07:21:44.210Z,50.6193
2023-04-16T07:22:45.649Z,50.4834
2023-04-16T07:23:47.024Z,49.8245
2023-04-16T07:24:48.538Z,50.0474
2023-04-16T07:25:49.975Z,50.0187
2023-04-16T07:26:51.474Z,50.1862
2023-04-16T07:27:52.803Z,50.2968
2023-04-16T07:28:54.268Z,50.2488
2023-04-16T07:29:55.672Z,50.0153
2023-04-16T07:30:57.190Z,49.9655
2023-04-16T07:31:58.654Z,50.1799
2023-04-16T07:33:00.111Z,50.4735
2023-04-16T07:34:01.436Z,50.1678
2023-04-16T07:35:02.892Z,49.7548
2023-04-16T07:36:04.372Z,50.1916
2023-04-16T07:37:05.801Z,50.1651
2023-04-16T07:38:07.162Z,50.1601
2023-04-16T07:39:08.937Z,50.1039
2023-04-16T07:40:10.029Z,49.8614
2023-04-16T07:41:11.538Z,49.8823
2023-04-16T07:42:12.976Z,49.7201
2023-04-16T07:43:14.401Z,50.3140
2023-04-16T07:44:15.815Z,50.7210
2023-04-16T07:45:17.252Z,50.3198
2023-04-16T07:46:18.752Z,49.9938
2023-04-16T07:47:20.209Z,50.0944
2023-04-16T07:48:21.549Z,50.0527
2023-04-16T07:49:23.015Z,50.3140
2023-04-16T07:50:24.416Z,50.0042
2023-04-16T07:51:25.870Z,49.6696
2023-04-16T07:52:27.353Z,49.7705
2023-04-16T07:53:28.700Z,49.6830
2023-04-16T07:54:30.245Z,50.3893
2023-04-16T07:55:31.626Z,50.3805
2023-04-16T07:56:33.190Z,49.6575
2023-04-16T07:57:34.490Z,50.0467
2023-04-16T07:58:35.908Z,50.0711
2023-04-16T07:59:37.386Z,50.4532
2023-04-16T08:00:38.811Z,50.7411
2023-04-16T08:01:40.280Z,50.2423
2023-04-16T08:02:41.927Z,50.3196
2023-04-16T08:03:43.323Z,50.4207
2023-04-16T08:04:44.974Z,50.5143
2023-04-16T08:05:45.991Z,50.7018
2023-04-16T08:06:47.534Z,50.3717
2023-04-16T08:07:48.893Z,50.0014
2023-04-16T08:08:50.374Z,50.2934
2023-04-16T08:09:51.747Z,50.1213
2023-04-16T08:10:53.201Z,50.6058
2023-04-16T08:11:54.664Z,50.5133
2023-04-16T08:12:56.110Z,49.9932
2023-04-16T08:13:57.495Z,50.1364
2023-04-16T08:14:58.945Z,49.8538
2023-04-16T08:16:00.394Z,50.4518
2023-04-16T08:17:01.867Z,50.8259
2023-04-16T08:18:03.338Z,50.1690
2023-04-16T08:19:04.755Z,50.0453
2023-04-16T08:20:06.228Z,50.3132
2023-04-16T08:21:07.628Z,50.2195
2023-04-16T08:22:09.070Z,50.4964
2023-04-16T08:23:10.512Z,50.9041
2023-04-16T08:24:12.905Z,50.2196
2023-04-16T08:25:13.325Z,50.1876
2023-04-16T08:26:14.816Z,50.1544
2023-04-16T08:27:19.746Z,50.5425
2023-04-16T08:28:17.710Z,50.6795
2023-04-16T08:29:19.059Z,50.0777
2023-04-16T08:30:20.558Z,50.0308
2023-04-16T08:31:22.031Z,50.0806
2023-04-16T08:32:23.508Z,50.3182
2023-04-16T08:33:24.943Z,50.6841
2023-04-16T08:34:26.296Z,50.5154
2023-04-16T08:35:27.769Z,50.1605
2023-04-16T08:36:29.176Z,50.3776
2023-04-16T08:37:30.614Z,50.2671
2023-04-16T08:38:32.121Z,50.8624
2023-04-16T08:39:33.460Z,50.8197
2023-04-16T08:40:34.976Z,50.1234
2023-04-16T08:41:36.360Z,50.2302
2023-04-16T08:42:37.914Z,50.4736
2023-04-16T08:43:39.316Z,50.5071
2023-04-16T08:44:40.728Z,50.6426
2023-04-16T08:45:42.111Z,50.1374
2023-04-16T08:46:43.809Z,50.1315
2023-04-16T08:47:45.091Z,49.9491
2023-04-16T08:48:46.540Z,50.2709
2023-04-16T08:49:47.847Z,50.4654
2023-04-16T08:50:49.393Z,50.0331
2023-04-16T08:51:50.782Z,50.0216
2023-04-16T08:52:52.272Z,50.3594
2023-04-16T08:53:53.748Z,51.0020
2023-04-16T08:54:56.697Z,52.1247
2023-04-16T08:55:56.544Z,52.9103
2023-04-16T08:56:58.816Z,52.2085
2023-04-16T08:57:59.534Z,52.0485
2023-04-16T08:59:00.902Z,52.3675
2023-04-16T09:00:02.321Z,53.1998
2023-04-16T09:01:03.700Z,54.5069
2023-04-16T09:02:05.300Z,54.6830
2023-04-16T09:03:06.930Z,53.5783
2023-04-16T09:04:08.226Z,53.4749
2023-04-16T09:05:09.507Z,53.6655
2023-04-16T09:06:10.979Z,54.5711
2023-04-16T09:07:12.362Z,55.4821
2023-04-16T09:08:13.929Z,54.8073
2023-04-16T09:09:15.281Z,54.3760
2023-04-16T09:10:16.737Z,54.1341
2023-04-16T09:11:18.168Z,54.7449
2023-04-16T09:12:19.720Z,55.6050
2023-04-16T09:13:21.220Z,56.0750
2023-04-16T09:14:22.658Z,55.3612
2023-04-16T09:15:24.045Z,55.1679
2023-04-16T09:16:25.539Z,55.2245
2023-04-16T09:17:26.957Z,55.4611
2023-04-16T09:18:28.377Z,56.6056
2023-04-16T09:19:29.894Z,56.8709
2023-04-16T09:20:31.327Z,56.0066
2023-04-16T09:21:32.732Z,55.6688
2023-04-16T09:22:34.127Z,55.6892
2023-04-16T09:23:35.637Z,56.1600
2023-04-16T09:24:37.100Z,56.2381
2023-04-16T09:25:38.599Z,56.6353
2023-04-16T09:26:39.892Z,56.2818
2023-04-16T09:27:41.371Z,55.9305
2023-04-16T09:28:42.853Z,56.7523
2023-04-16T09:29:44.301Z,57.3118
2023-04-16T09:30:45.713Z,57.3928
2023-04-16T09:31:47.205Z,57.9816
2023-04-16T09:32:48.584Z,57.1176
2023-04-16T09:33:50.138Z,56.5041
2023-04-16T09:34:51.471Z,57.3816
2023-04-16T09:35:52.982Z,57.2527
2023-04-16T09:36:54.418Z,56.8844
2023-04-16T09:37:55.821Z,57.1222
2023-04-16T09:38:57.808Z,56.9023
2023-04-16T09:39:58.768Z,57.1330
2023-04-16T09:41:00.129Z,57.8280
2023-04-16T09:42:01.668Z,57.3725
2023-04-16T09:43:03.079Z,57.3990
2023-04-16T09:44:04.514Z,57.1595
2023-04-16T09:45:06.508Z,56.9958
2023-04-16T09:46:08.416Z,57.1045
2023-04-16T09:47:08.750Z,57.5160
2023-04-16T09:48:10.266Z,57.4583
2023-04-16T09:49:11.962Z,57.7346
2023-04-16T09:50:13.315Z,57.5438
2023-04-16T09:51:14.703Z,57.2580
2023-04-16T09:52:16.075Z,57.3729
2023-04-16T09:53:18.452Z,57.9395
2023-04-16T09:54:19.015Z,57.3475
2023-04-16T09:55:20.454Z,57.4152
2023-04-16T09:56:21.894Z,56.4075
2023-04-16T09:57:23.336Z,55.3567
2023-04-16T09:58:24.720Z,55.4065
2023-04-16T09:59:26.204Z,54.8145
2023-04-16T10:00:27.623Z,54.3948
2023-04-16T10:01:29.187Z,53.7967
2023-04-16T10:02:30.501Z,53.3910
2023-04-16T10:03:32.159Z,53.0881
2023-04-16T10:04:33.408Z,53.6087
2023-04-16T10:05:34.939Z,53.7006
2023-04-16T10:06:36.274Z,53.0647
2023-04-16T10:07:37.696Z,52.6661
2023-04-16T10:08:39.106Z,52.0609
2023-04-16T10:09:40.597Z,52.3175
2023-04-16T10:10:42.039Z,52.5978
2023-04-16T10:11:43.526Z,51.9112
2023-04-16T10:12:44.882Z,51.6718
2023-04-16T10:13:46.373Z,51.5968
2023-04-16T10:14:49.606Z,51.6982
2023-04-16T10:15:49.329Z,51.9825
2023-04-16T10:16:50.684Z,51.5522
2023-04-16T10:17:53.023Z,51.1027
2023-04-16T10:18:53.555Z,50.9368
2023-04-16T10:19:55.017Z,50.5127
2023-04-16T10:20:56.927Z,50.8185
2023-04-16T10:21:57.956Z,51.1105
2023-04-16T10:22:59.353Z,50.6300
2023-04-16T10:24:00.817Z,50.4101
2023-04-16T10:25:02.199Z,50.0338
2023-04-16T10:26:03.755Z,50.0262
2023-04-16T10:27:05.136Z,50.6328
2023-04-16T10:28:06.634Z,50.6006
2023-04-16T10:29:08.093Z,50.1608
2023-04-16T10:30:09.495Z,50.5733
2023-04-16T10:31:11.031Z,50.7148
2023-04-16T10:32:12.351Z,51.2201
2023-04-16T10:33:13.856Z,52.1475
2023-04-16T10:34:15.192Z,52.6959
2023-04-16T10:35:16.714Z,52.1210
2023-04-16T10:36:18.137Z,52.0207
2023-04-16T10:37:19.647Z,52.2300
2023-04-16T10:38:21.058Z,52.9197
2023-04-16T10:39:22.432Z,53.7256
2023-04-16T10:40:23.840Z,53.3668
2023-04-16T10:41:25.352Z,52.8073
2023-04-16T10:42:26.799Z,52.5703
2023-04-16T10:43:28.455Z,53.1606
2023-04-16T10:44:29.727Z,53.6646
2023-04-16T10:45:31.078Z,54.4472
2023-04-16T10:46:32.589Z,53.8936
2023-04-16T10:47:34.010Z,53.4959
2023-04-16T10:48:46.564Z,53.1526
2023-04-16T10:49:36.909Z,53.9649
2023-04-16T10:50:38.267Z,54.5214
2023-04-16T10:51:39.739Z,55.8150
2023-04-16T10:52:41.254Z,54.6874
2023-04-16T10:53:42.913Z,54.0747
2023-04-16T10:54:44.156Z,54.2517
2023-04-16T10:55:45.555Z,54.7587
2023-04-16T10:56:47.011Z,55.1848
2023-04-16T10:57:48.389Z,55.4186
2023-04-16T10:58:49.912Z,54.7960
2023-04-16T10:59:51.375Z,54.5951
2023-04-16T11:00:52.736Z,55.1123
2023-04-16T11:01:54.377Z,55.2341
2023-04-16T11:02:55.709Z,55.2889
2023-04-16T11:03:57.319Z,55.5547
2023-04-16T11:04:58.646Z,55.3206
2023-04-16T11:05:59.902Z,54.8364
2023-04-16T11:07:01.410Z,55.3953
2023-04-16T11:08:02.777Z,55.8719
2023-04-16T11:09:04.287Z,56.2894
2023-04-16T11:10:05.764Z,56.4852
2023-04-16T11:11:07.314Z,55.8398
2023-04-16T11:12:08.538Z,55.4494
2023-04-16T11:13:10.046Z,55.9201
2023-04-16T11:14:12.417Z,56.2365
2023-04-16T11:15:13.917Z,56.9369
2023-04-16T11:16:14.444Z,57.2629
2023-04-16T11:17:15.795Z,55.9865
2023-04-16T11:18:17.242Z,55.6425
2023-04-16T11:19:18.691Z,56.3248
2023-04-16T11:20:20.929Z,56.3187
2023-04-16T11:21:21.609Z,56.7811
2023-04-16T11:22:23.169Z,56.6306
2023-04-16T11:23:24.431Z,55.8927
2023-04-16T11:24:26.352Z,55.3592
2023-04-16T11:25:27.286Z,56.0989
2023-04-16T11:26:28.889Z,56.3285
2023-04-16T11:27:30.240Z,56.9123
2023-04-16T11:28:31.724Z,56.3570
2023-04-16T11:29:33.106Z,55.7921
2023-04-16T11:30:34.644Z,55.6352
2023-04-16T11:31:36.155Z,56.4437
2023-04-16T11:32:37.529Z,56.8689
2023-04-16T11:33:38.922Z,56.8054
2023-04-16T11:34:40.390Z,56.1102
2023-04-16T11:35:41.810Z,55.6472
2023-04-16T11:36:43.262Z,55.5534
2023-04-16T11:37:44.702Z,56.0741
2023-04-16T11:38:46.141Z,56.3070
2023-04-16T11:39:47.536Z,56.7444
2023-04-16T11:40:48.987Z,55.9455
2023-04-16T11:41:50.471Z,55.6182
2023-04-16T11:42:52.423Z,55.8343
2023-04-16T11:43:53.356Z,56.8139
2023-04-16T11:44:54.788Z,56.9148
2023-04-16T11:45:56.211Z,57.7495
2023-04-16T11:46:57.771Z,56.5654
2023-04-16T11:47:59.182Z,56.2696
2023-04-16T11:49:00.487Z,56.3104
2023-04-16T11:50:02.059Z,57.0450
2023-04-16T11:51:03.438Z,57.0555
2023-04-16T11:52:04.903Z,57.7413
2023-04-16T11:53:06.400Z,56.7024
2023-04-16T11:54:09.142Z,56.1055
2023-04-16T11:55:09.160Z,56.0266
2023-04-16T11:56:10.616Z,56.6170
2023-04-16T11:57:12.057Z,57.1415
2023-04-16T11:58:13.564Z,57.4995
2023-04-16T11:59:15.248Z,56.5902
2023-04-16T12:00:16.370Z,56.1749
2023-04-16T12:01:17.783Z,56.4581
2023-04-16T12:02:19.324Z,57.0743
2023-04-16T12:03:20.929Z,57.8957
2023-04-16T12:04:22.269Z,57.8587
2023-04-16T12:05:23.569Z,56.9343
2023-04-16T12:06:24.967Z,56.4191
2023-04-16T12:07:27.364Z,56.6642
2023-04-16T12:08:35.992Z,57.2188
2023-04-16T12:09:29.366Z,57.7773
2023-04-16T12:10:30.808Z,57.9793
2023-04-16T12:11:32.248Z,57.0052
2023-04-16T12:12:33.689Z,56.3756
2023-04-16T12:13:35.116Z,56.7078
2023-04-16T12:14:36.613Z,56.2600
2023-04-16T12:15:37.972Z,55.6367
2023-04-16T12:16:39.497Z,54.7435
2023-04-16T12:17:40.893Z,54.0234
2023-04-16T12:18:42.411Z,53.4303
2023-04-16T12:19:43.757Z,53.5979
2023-04-16T12:20:45.189Z,53.8578
2023-04-16T12:21:46.598Z,53.0978
2023-04-16T12:22:48.115Z,52.6859